createdAt,value
2023-05-05T00:00:33.167Z,44.19
2023-05-05T00:01:37.088Z,44.18
2023-05-05T00:02:40.063Z,44.19
2023-05-05T00:03:44.153Z,44.16
2023-05-05T00:04:47.322Z,44.18
2023-05-05T00:05:52.757Z,44.18
2023-05-05T00:06:55.847Z,44.18
2023-05-05T00:07:58.673Z,44.16
2023-05-05T00:09:01.819Z,44.18
2023-05-05T00:10:05.633Z,44.19
2023-05-05T00:11:08.910Z,44.22
2023-05-05T00:12:12.000Z,44.24
2023-05-05T00:13:14.748Z,44.22
2023-05-05T00:14:18.124Z,44.21
2023-05-05T00:15:20.663Z,44.29
2023-05-05T00:16:23.699Z,44.29
2023-05-05T00:17:27.274Z,44.30
2023-05-05T00:18:30.807Z,44.27
2023-05-05T00:19:34.101Z,44.30
2023-05-05T00:20:37.836Z,44.29
2023-05-05T00:21:42.031Z,44.27
2023-05-05T00:22:45.656Z,44.28
2023-05-05T00:23:48.700Z,44.30
2023-05-05T00:24:51.435Z,44.28
2023-05-05T00:25:54.147Z,44.29
2023-05-05T00:26:57.801Z,44.26
2023-05-05T00:28:01.746Z,44.30
2023-05-05T00:29:04.698Z,44.29
2023-05-05T00:30:08.584Z,44.25
2023-05-05T00:31:11.810Z,44.25
2023-05-05T00:32:15.588Z,44.28
2023-05-05T00:33:19.476Z,44.29
2023-05-05T00:34:22.268Z,44.33
2023-05-05T00:35:27.468Z,44.27
2023-05-05T00:36:30.660Z,44.24
2023-05-05T00:37:33.681Z,44.22
2023-05-05T00:38:36.302Z,44.22
2023-05-05T00:39:40.086Z,44.22
2023-05-05T00:40:42.711Z,44.21
2023-05-05T00:41:45.531Z,44.19
2023-05-05T00:42:51.578Z,44.19
2023-05-05T00:43:56.192Z,44.19
2023-05-05T00:45:00.818Z,44.18
2023-05-05T00:47:27.671Z,44.21
2023-05-05T00:48:30.738Z,44.15
2023-05-05T00:49:35.017Z,44.13
2023-05-05T00:50:39.159Z,44.11
2023-05-05T00:51:42.964Z,44.10
2023-05-05T00:52:46.773Z,44.11
2023-05-05T00:53:49.850Z,44.10
2023-05-05T00:54:52.671Z,44.11
2023-05-05T00:55:56.462Z,44.11
2023-05-05T00:57:02.335Z,44.05
2023-05-05T00:58:06.101Z,44.08
2023-05-05T00:59:09.178Z,44.05
2023-05-05T01:00:13.670Z,44.04
2023-05-05T01:01:17.067Z,44.04
2023-05-05T01:02:21.416Z,44.03
2023-05-05T01:03:25.192Z,44.04
2023-05-05T01:04:28.637Z,44.05
2023-05-05T01:05:35.444Z,44.06
2023-05-05T01:08:30.462Z,43.99
2023-05-05T01:10:07.231Z,44.00
2023-05-05T01:12:21.567Z,44.05
2023-05-05T01:13:38.410Z,44.04
2023-05-05T01:14:45.436Z,44.05
2023-05-05T01:17:21.559Z,44.07
2023-05-05T01:18:32.565Z,44.06
2023-05-05T01:22:42.858Z,44.09
2023-05-05T01:23:53.495Z,44.06
2023-05-05T01:25:05.526Z,44.08
2023-05-05T01:26:19.235Z,44.09
2023-05-05T01:27:49.938Z,44.03
2023-05-05T01:29:07.858Z,44.01
2023-05-05T01:30:23.398Z,44.02
2023-05-05T01:33:08.337Z,44.10
2023-05-05T01:34:11.404Z,44.17
2023-05-05T01:35:17.980Z,44.20
2023-05-05T01:36:23.657Z,44.22
2023-05-05T01:37:28.877Z,44.24
2023-05-05T01:38:35.781Z,44.24
2023-05-05T01:39:38.461Z,44.32
2023-05-05T01:42:08.133Z,44.17
2023-05-05T01:43:11.423Z,44.23
2023-05-05T01:44:16.203Z,44.28
2023-05-05T01:45:20.811Z,44.26
2023-05-05T01:46:23.636Z,44.22
2023-05-05T01:47:26.720Z,44.22
2023-05-05T01:48:32.686Z,44.23
2023-05-05T01:49:36.237Z,44.22
2023-05-05T01:50:42.443Z,44.22
2023-05-05T01:51:45.971Z,44.21
2023-05-05T01:52:50.284Z,44.20
2023-05-05T01:53:58.647Z,44.16
2023-05-05T01:55:02.349Z,44.16
2023-05-05T01:56:07.687Z,44.10
2023-05-05T01:57:11.763Z,44.11
2023-05-05T01:58:15.401Z,44.16
2023-05-05T01:59:18.106Z,44.16
2023-05-05T02:00:21.156Z,44.07
2023-05-05T02:01:25.594Z,44.07
2023-05-05T02:02:29.646Z,44.03
2023-05-05T02:03:33.660Z,44.01
2023-05-05T02:04:40.550Z,43.97
2023-05-05T02:05:44.056Z,43.94
2023-05-05T02:06:47.046Z,44.00
2023-05-05T02:07:50.646Z,43.98
2023-05-05T02:08:53.650Z,43.95
2023-05-05T02:09:56.305Z,43.79
2023-05-05T02:10:59.119Z,43.79
2023-05-05T02:12:02.009Z,43.90
2023-05-05T02:13:04.951Z,43.85
2023-05-05T02:14:08.657Z,43.89
2023-05-05T02:15:11.759Z,43.84
2023-05-05T02:16:16.647Z,43.84
2023-05-05T02:17:19.492Z,43.79
2023-05-05T02:18:22.831Z,43.82
2023-05-05T02:19:31.579Z,43.82
2023-05-05T02:20:35.738Z,43.82
2023-05-05T02:21:38.651Z,43.79
2023-05-05T02:22:42.762Z,43.78
2023-05-05T02:23:51.147Z,43.76
2023-05-05T02:24:54.179Z,43.79
2023-05-05T02:26:03.109Z,43.77
2023-05-05T02:27:06.384Z,43.73
2023-05-05T02:28:13.925Z,43.50
2023-05-05T02:29:19.932Z,43.50
2023-05-05T02:30:23.976Z,43.72
2023-05-05T02:31:27.739Z,43.73
2023-05-05T02:32:35.896Z,43.71
2023-05-05T02:33:38.837Z,43.74
2023-05-05T02:34:41.662Z,43.71
2023-05-05T02:35:46.479Z,43.75
2023-05-05T02:36:52.539Z,43.72
2023-05-05T02:37:59.413Z,43.72
2023-05-05T02:39:04.201Z,43.67
2023-05-05T02:40:09.597Z,43.58
2023-05-05T02:41:16.110Z,43.42
2023-05-05T02:42:20.748Z,43.36
2023-05-05T02:43:24.529Z,43.33
2023-05-05T02:44:27.480Z,43.38
2023-05-05T02:45:30.544Z,43.33
2023-05-05T02:46:33.557Z,43.34
2023-05-05T02:47:39.086Z,43.32
2023-05-05T02:48:42.650Z,43.32
2023-05-05T02:49:45.465Z,43.34
2023-05-05T02:50:48.510Z,43.39
2023-05-05T02:51:53.630Z,43.46
2023-05-05T02:53:01.021Z,43.51
2023-05-05T02:54:04.337Z,43.53
2023-05-05T02:55:08.086Z,43.60
2023-05-05T02:56:23.521Z,43.71
2023-05-05T02:57:49.108Z,43.74
2023-05-05T02:58:58.861Z,43.81
2023-05-05T03:00:09.372Z,43.86
2023-05-05T03:01:28.692Z,43.88
2023-05-05T03:02:41.645Z,43.92
2023-05-05T03:03:48.641Z,43.95
2023-05-05T03:06:20.821Z,44.17
2023-05-05T03:07:42.452Z,44.18
2023-05-05T03:10:08.627Z,44.29
2023-05-05T03:11:17.397Z,44.33
2023-05-05T03:12:22.809Z,44.43
2023-05-05T03:13:27.846Z,44.46
2023-05-05T03:14:37.867Z,44.45
2023-05-05T03:15:44.516Z,44.47
2023-05-05T03:16:48.446Z,44.55
2023-05-05T03:17:52.559Z,44.54
2023-05-05T03:18:56.334Z,44.60
2023-05-05T03:20:00.535Z,44.90
2023-05-05T03:21:08.226Z,44.90
2023-05-05T03:22:12.794Z,44.61
2023-05-05T03:24:32.349Z,44.67
2023-05-05T03:25:47.584Z,44.64
2023-05-05T03:26:53.154Z,44.69
2023-05-05T03:27:57.032Z,44.75
2023-05-05T03:29:00.437Z,44.76
2023-05-05T03:30:06.661Z,44.80
2023-05-05T03:31:11.091Z,44.83
2023-05-05T03:32:14.067Z,44.91
2023-05-05T03:33:17.190Z,44.87
2023-05-05T03:34:21.426Z,44.85
2023-05-05T03:35:26.436Z,44.91
2023-05-05T03:36:29.720Z,44.91
2023-05-05T03:37:33.132Z,44.93
2023-05-05T03:38:36.395Z,44.92
2023-05-05T03:39:39.669Z,44.93
2023-05-05T03:40:44.591Z,44.92
2023-05-05T03:41:47.457Z,44.93
2023-05-05T03:42:50.540Z,44.95
2023-05-05T03:43:53.361Z,44.92
2023-05-05T03:44:57.183Z,44.93
2023-05-05T03:46:00.640Z,44.93
2023-05-05T03:47:05.641Z,44.95
2023-05-05T03:48:10.020Z,44.92
2023-05-05T03:49:14.330Z,44.92
2023-05-05T03:50:17.608Z,44.92
2023-05-05T03:51:20.961Z,44.93
2023-05-05T03:52:25.381Z,44.93
2023-05-05T03:53:28.375Z,44.93
2023-05-05T03:54:31.321Z,44.92
2023-05-05T03:55:34.514Z,44.95
2023-05-05T03:56:40.563Z,44.95
2023-05-05T03:57:45.907Z,44.96
2023-05-05T03:58:48.602Z,44.93
2023-05-05T03:59:52.000Z,44.95
2023-05-05T04:00:54.816Z,44.74
2023-05-05T04:01:58.270Z,44.74
2023-05-05T04:03:01.952Z,44.97
2023-05-05T04:04:05.739Z,44.93
2023-05-05T04:05:10.543Z,45.01
2023-05-05T04:06:15.012Z,44.98
2023-05-05T04:07:18.221Z,44.99
2023-05-05T04:08:21.197Z,45.03
2023-05-05T04:09:23.904Z,45.11
2023-05-05T04:10:26.965Z,45.10
2023-05-05T04:11:31.020Z,45.15
2023-05-05T04:12:34.264Z,45.18
2023-05-05T04:13:37.271Z,45.24
2023-05-05T04:14:40.711Z,45.19
2023-05-05T04:15:45.836Z,45.24
2023-05-05T04:16:49.529Z,45.26
2023-05-05T04:17:52.956Z,45.29
2023-05-05T04:18:56.484Z,45.36
2023-05-05T04:20:01.915Z,45.37
2023-05-05T04:21:06.456Z,45.37
2023-05-05T04:22:09.846Z,45.33
2023-05-05T04:23:13.191Z,45.40
2023-05-05T04:24:16.272Z,45.38
2023-05-05T04:25:19.969Z,45.42
2023-05-05T04:26:23.893Z,45.42
2023-05-05T04:27:29.955Z,45.42
2023-05-05T04:28:34.067Z,45.38
2023-05-05T04:29:36.844Z,45.38
2023-05-05T04:30:40.153Z,45.38
2023-05-05T04:31:44.169Z,45.36
2023-05-05T04:32:47.168Z,45.35
2023-05-05T04:33:50.133Z,45.41
2023-05-05T04:34:53.773Z,45.35
2023-05-05T04:35:57.875Z,45.34
2023-05-05T04:37:00.842Z,45.29
2023-05-05T04:38:03.779Z,45.26
2023-05-05T04:39:08.107Z,45.26
2023-05-05T04:40:12.693Z,45.26
2023-05-05T04:41:15.655Z,45.25
2023-05-05T04:42:18.713Z,45.21
2023-05-05T04:43:21.526Z,45.17
2023-05-05T04:44:24.332Z,45.16
2023-05-05T04:45:29.458Z,45.13
2023-05-05T04:46:34.158Z,45.07
2023-05-05T04:47:38.800Z,45.07
2023-05-05T04:48:43.998Z,45.01
2023-05-05T04:49:48.112Z,44.94
2023-05-05T04:50:51.700Z,44.88
2023-05-05T04:53:06.815Z,44.67
2023-05-05T04:54:10.619Z,44.78
2023-05-05T04:55:13.453Z,44.84
2023-05-05T04:56:16.273Z,44.86
2023-05-05T04:57:19.468Z,44.87
2023-05-05T04:58:21.880Z,45.00
2023-05-05T04:59:24.744Z,45.01
2023-05-05T05:00:28.188Z,45.06
2023-05-05T05:01:31.109Z,45.07
2023-05-05T05:02:34.117Z,45.11
2023-05-05T05:03:37.253Z,45.06
2023-05-05T05:04:40.221Z,45.06
2023-05-05T05:05:44.842Z,45.03
2023-05-05T05:06:49.409Z,45.04
2023-05-05T05:07:52.599Z,45.01
2023-05-05T05:08:55.627Z,44.99
2023-05-05T05:09:59.216Z,45.00
2023-05-05T05:11:02.782Z,45.04
2023-05-05T05:12:07.419Z,45.08
2023-05-05T05:13:12.723Z,45.05
2023-05-05T05:14:16.866Z,45.01
2023-05-05T05:15:20.917Z,45.00
2023-05-05T05:16:25.184Z,44.98
2023-05-05T05:17:29.714Z,45.06
2023-05-05T05:18:33.996Z,45.10
2023-05-05T05:19:36.755Z,45.11
2023-05-05T05:20:39.878Z,45.14
2023-05-05T05:21:43.070Z,45.17
2023-05-05T05:22:47.291Z,45.19
2023-05-05T05:23:51.998Z,45.22
2023-05-05T05:24:55.521Z,45.22
2023-05-05T05:25:58.484Z,45.26
2023-05-05T05:27:02.921Z,45.27
2023-05-05T05:28:10.292Z,45.31
2023-05-05T05:29:11.804Z,45.30
2023-05-05T05:30:15.456Z,45.36
2023-05-05T05:32:32.136Z,45.60
2023-05-05T05:33:35.075Z,45.77
2023-05-05T05:34:39.016Z,45.76
2023-05-05T05:35:42.183Z,45.77
2023-05-05T05:36:45.569Z,45.70
2023-05-05T05:37:50.304Z,45.12
2023-05-05T05:38:53.655Z,45.26
2023-05-05T05:39:57.948Z,45.22
2023-05-05T05:41:07.757Z,45.16
2023-05-05T05:42:10.893Z,45.16
2023-05-05T05:43:13.583Z,45.03
2023-05-05T05:44:16.329Z,44.37
2023-05-05T05:45:20.366Z,44.24
2023-05-05T05:46:23.134Z,44.79
2023-05-05T05:47:27.151Z,44.99
2023-05-05T05:48:31.338Z,44.86
2023-05-05T05:49:34.600Z,44.88
2023-05-05T05:50:40.438Z,44.70
2023-05-05T05:51:43.203Z,44.72
2023-05-05T05:52:46.560Z,44.70
2023-05-05T05:53:50.272Z,44.72
2023-05-05T05:54:54.078Z,44.71
2023-05-05T05:55:56.800Z,44.72
2023-05-05T05:57:00.635Z,44.65
2023-05-05T05:58:03.748Z,44.73
2023-05-05T05:59:08.844Z,44.65
2023-05-05T06:00:13.422Z,44.66
2023-05-05T06:01:16.859Z,44.40
2023-05-05T06:02:20.808Z,43.71
2023-05-05T06:03:24.351Z,43.65
2023-05-05T06:04:27.269Z,43.54
2023-05-05T06:05:30.760Z,43.35
2023-05-05T06:06:35.186Z,43.18
2023-05-05T06:07:39.244Z,43.54
2023-05-05T06:08:42.932Z,43.77
2023-05-05T06:09:46.653Z,43.98
2023-05-05T06:10:49.739Z,44.04
2023-05-05T06:11:54.235Z,44.07
2023-05-05T06:12:57.010Z,44.02
2023-05-05T06:13:59.988Z,43.70
2023-05-05T06:15:03.621Z,43.57
2023-05-05T06:16:07.313Z,43.58
2023-05-05T06:17:12.014Z,42.99
2023-05-05T06:18:17.150Z,42.30
2023-05-05T06:19:21.019Z,42.73
2023-05-05T06:20:24.905Z,43.21
2023-05-05T06:21:27.811Z,43.15
2023-05-05T06:22:30.840Z,42.73
2023-05-05T06:23:33.765Z,43.21
2023-05-05T06:24:38.750Z,43.32
2023-05-05T06:25:42.712Z,42.06
2023-05-05T06:26:45.570Z,42.27
2023-05-05T06:27:49.421Z,41.92
2023-05-05T06:28:52.631Z,42.18
2023-05-05T06:29:55.443Z,42.20
2023-05-05T06:30:58.185Z,42.21
2023-05-05T06:32:02.618Z,42.46
2023-05-05T06:33:05.767Z,43.22
2023-05-05T06:34:08.606Z,44.75
2023-05-05T06:35:11.803Z,44.46
2023-05-05T06:36:15.163Z,44.42
2023-05-05T06:37:18.426Z,44.43
2023-05-05T06:38:21.630Z,44.21
2023-05-05T06:39:24.665Z,43.85
2023-05-05T06:40:27.475Z,43.96
2023-05-05T06:41:30.708Z,43.94
2023-05-05T06:42:35.085Z,43.37
2023-05-05T06:43:41.470Z,43.34
2023-05-05T06:44:46.724Z,43.07
2023-05-05T06:45:50.671Z,42.79
2023-05-05T06:46:55.004Z,43.02
2023-05-05T06:47:57.889Z,43.20
2023-05-05T06:49:00.740Z,43.80
2023-05-05T06:50:06.554Z,43.42
2023-05-05T06:51:09.460Z,43.97
2023-05-05T06:52:12.493Z,43.86
2023-05-05T06:53:16.214Z,43.96
2023-05-05T06:54:19.052Z,43.85
2023-05-05T06:55:23.429Z,43.81
2023-05-05T06:56:27.088Z,44.45
2023-05-05T06:57:30.683Z,44.69
2023-05-05T06:58:34.139Z,44.62
2023-05-05T06:59:37.829Z,44.47
2023-05-05T07:00:41.090Z,45.14
2023-05-05T07:01:44.082Z,45.40
2023-05-05T07:02:47.003Z,44.66
2023-05-05T07:03:49.638Z,43.95
2023-05-05T07:04:54.859Z,44.14
2023-05-05T07:05:59.184Z,43.99
2023-05-05T07:07:01.903Z,44.42
2023-05-05T07:08:08.429Z,43.84
2023-05-05T07:09:12.107Z,44.17
2023-05-05T07:10:16.009Z,44.87
2023-05-05T07:11:22.093Z,45.74
2023-05-05T07:12:25.210Z,46.10
2023-05-05T07:13:29.046Z,46.33
2023-05-05T07:14:32.102Z,46.47
2023-05-05T07:15:35.003Z,46.61
2023-05-05T07:16:38.749Z,46.70
2023-05-05T07:17:41.773Z,46.77
2023-05-05T07:18:44.457Z,46.84
2023-05-05T07:19:47.810Z,46.51
2023-05-05T07:20:50.376Z,46.51
2023-05-05T07:21:53.057Z,46.80
2023-05-05T07:22:56.350Z,47.08
2023-05-05T07:24:00.577Z,47.28
2023-05-05T07:25:04.745Z,47.57
2023-05-05T07:26:09.845Z,47.42
2023-05-05T07:27:13.312Z,46.74
2023-05-05T07:28:17.366Z,47.13
2023-05-05T07:29:20.934Z,45.74
2023-05-05T07:30:27.645Z,44.47
2023-05-05T07:31:30.926Z,44.58
2023-05-05T07:32:33.914Z,44.46
2023-05-05T07:33:37.775Z,45.22
2023-05-05T07:34:41.301Z,45.36
2023-05-05T07:35:44.643Z,45.60
2023-05-05T07:36:47.831Z,44.83
2023-05-05T07:37:51.297Z,44.52
2023-05-05T07:38:54.830Z,44.98
2023-05-05T07:39:57.647Z,44.90
2023-05-05T07:41:00.475Z,46.07
2023-05-05T07:42:04.452Z,46.17
2023-05-05T07:43:07.139Z,45.97
2023-05-05T07:44:11.941Z,46.32
2023-05-05T07:45:15.297Z,46.44
2023-05-05T07:46:19.412Z,43.97
2023-05-05T07:47:22.146Z,44.70
2023-05-05T07:48:25.065Z,44.63
2023-05-05T07:49:28.360Z,45.39
2023-05-05T07:50:31.629Z,43.54
2023-05-05T07:51:34.896Z,44.10
2023-05-05T07:52:48.377Z,43.95
2023-05-05T07:53:42.507Z,43.70
2023-05-05T07:54:46.728Z,43.67
2023-05-05T07:55:51.817Z,43.19
2023-05-05T07:56:55.131Z,43.78
2023-05-05T07:57:58.864Z,43.96
2023-05-05T07:59:02.088Z,44.12
2023-05-05T08:00:06.711Z,44.12
2023-05-05T08:01:12.624Z,44.40
2023-05-05T08:02:15.732Z,42.86
2023-05-05T08:03:24.505Z,43.49
2023-05-05T08:04:28.202Z,43.81
2023-05-05T08:05:31.507Z,44.12
2023-05-05T08:06:34.429Z,44.34
2023-05-05T08:07:40.569Z,44.07
2023-05-05T08:08:43.168Z,44.34
2023-05-05T08:09:46.730Z,44.01
2023-05-05T08:10:51.100Z,43.71
2023-05-05T08:11:53.726Z,43.89
2023-05-05T08:12:56.697Z,43.93
2023-05-05T08:14:00.581Z,43.99
2023-05-05T08:15:04.410Z,44.04
2023-05-05T08:16:07.788Z,43.41
2023-05-05T08:17:11.425Z,42.15
2023-05-05T08:18:16.350Z,42.89
2023-05-05T08:19:28.759Z,43.39
2023-05-05T08:20:27.797Z,43.03
2023-05-05T08:21:31.223Z,42.56
2023-05-05T08:22:34.506Z,43.71
2023-05-05T08:23:39.195Z,43.71
2023-05-05T08:24:42.011Z,41.89
2023-05-05T08:25:45.119Z,42.87
2023-05-05T08:26:49.510Z,43.17
2023-05-05T08:27:52.551Z,43.70
2023-05-05T08:28:57.205Z,43.70
2023-05-05T08:30:00.442Z,43.48
2023-05-05T08:31:04.108Z,42.35
2023-05-05T08:32:06.960Z,42.69
2023-05-05T08:33:10.709Z,42.51
2023-05-05T08:34:13.731Z,43.03
2023-05-05T08:35:16.500Z,41.70
2023-05-05T08:36:19.734Z,42.01
2023-05-05T08:37:23.061Z,42.64
2023-05-05T08:38:30.123Z,42.07
2023-05-05T08:39:33.324Z,42.28
2023-05-05T08:40:37.750Z,42.29
2023-05-05T08:41:41.708Z,42.84
2023-05-05T08:42:45.812Z,42.84
2023-05-05T08:43:50.854Z,42.74
2023-05-05T08:44:53.779Z,42.81
2023-05-05T08:45:57.057Z,42.76
2023-05-05T08:47:00.317Z,42.82
2023-05-05T08:48:05.241Z,42.87
2023-05-05T08:49:09.408Z,42.92
2023-05-05T08:50:12.667Z,42.91
2023-05-05T08:51:21.006Z,42.57
2023-05-05T08:52:24.438Z,42.75
2023-05-05T08:53:34.934Z,42.20
2023-05-05T08:54:37.827Z,42.47
2023-05-05T08:55:55.582Z,42.39
2023-05-05T08:57:01.231Z,42.32
2023-05-05T08:58:05.066Z,41.63
2023-05-05T08:59:09.760Z,41.38
2023-05-05T09:00:14.591Z,41.54
2023-05-05T09:01:17.774Z,40.73
2023-05-05T09:02:23.532Z,40.84
2023-05-05T09:03:27.367Z,41.66
2023-05-05T09:04:30.502Z,41.77
2023-05-05T09:05:33.350Z,41.76
2023-05-05T09:06:36.652Z,40.58
2023-05-05T09:07:40.841Z,40.79
2023-05-05T09:08:44.660Z,39.72
2023-05-05T09:09:48.123Z,39.51
2023-05-05T09:10:50.942Z,39.64
2023-05-05T09:11:53.801Z,39.53
2023-05-05T09:12:57.383Z,39.17
2023-05-05T09:14:01.200Z,39.81
2023-05-05T09:15:05.203Z,40.69
2023-05-05T09:16:09.278Z,40.95
2023-05-05T09:17:27.162Z,40.35
2023-05-05T09:18:30.356Z,39.87
2023-05-05T09:19:33.331Z,40.71
2023-05-05T09:20:38.209Z,40.98
2023-05-05T09:23:13.000Z,40.99
2023-05-05T09:24:16.025Z,41.21
2023-05-05T09:25:19.686Z,40.52
2023-05-05T09:26:22.438Z,40.73
2023-05-05T09:27:25.274Z,40.90
2023-05-05T09:28:27.924Z,41.03
2023-05-05T09:29:33.177Z,41.05
2023-05-05T09:30:41.763Z,41.08
2023-05-05T09:31:45.092Z,41.12
2023-05-05T09:32:50.349Z,41.13
2023-05-05T09:33:53.217Z,41.04
2023-05-05T09:35:01.318Z,41.04
2023-05-05T09:36:05.188Z,40.91
2023-05-05T09:37:07.946Z,40.24
2023-05-05T09:38:11.397Z,39.61
2023-05-05T09:39:18.645Z,39.37
2023-05-05T09:40:22.319Z,40.38
2023-05-05T09:41:43.507Z,40.25
2023-05-05T09:42:46.650Z,40.41
2023-05-05T09:43:51.164Z,40.58
2023-05-05T09:44:53.946Z,40.61
2023-05-05T09:46:09.128Z,40.66
2023-05-05T09:47:26.041Z,40.77
2023-05-05T09:48:27.660Z,40.76
2023-05-05T09:49:31.599Z,40.77
2023-05-05T09:50:44.236Z,40.79
2023-05-05T09:51:48.119Z,40.41
2023-05-05T09:52:55.446Z,40.63
2023-05-05T09:53:58.033Z,40.63
2023-05-05T09:55:01.228Z,39.85
2023-05-05T09:56:05.006Z,40.42
2023-05-05T09:57:08.947Z,40.26
2023-05-05T09:58:21.911Z,40.41
2023-05-05T09:59:25.129Z,38.95
2023-05-05T10:00:39.241Z,39.25
2023-05-05T10:01:44.259Z,39.97
2023-05-05T10:02:48.110Z,39.47
2023-05-05T10:03:53.844Z,39.63
2023-05-05T10:05:16.816Z,39.68
2023-05-05T10:06:20.343Z,39.60
2023-05-05T10:07:25.901Z,37.63
2023-05-05T10:08:30.222Z,38.69
2023-05-05T10:09:32.833Z,39.91
2023-05-05T10:10:35.673Z,39.91
2023-05-05T10:11:39.892Z,39.81
2023-05-05T10:12:43.722Z,39.50
2023-05-05T10:13:47.077Z,39.50
2023-05-05T10:14:52.986Z,39.94
2023-05-05T10:15:56.762Z,39.92
2023-05-05T10:16:59.655Z,39.87
2023-05-05T10:18:07.049Z,39.44
2023-05-05T10:19:08.358Z,39.57
2023-05-05T10:20:13.038Z,39.11
2023-05-05T10:21:16.863Z,39.62
2023-05-05T10:22:21.187Z,39.21
2023-05-05T10:23:27.071Z,39.56
2023-05-05T10:26:14.094Z,38.51
2023-05-05T10:27:20.989Z,39.34
2023-05-05T10:28:30.254Z,38.87
2023-05-05T10:29:41.877Z,38.42
2023-05-05T10:30:45.831Z,38.34
2023-05-05T10:31:52.629Z,39.04
2023-05-05T10:34:24.657Z,39.46
2023-05-05T10:35:27.363Z,39.46
2023-05-05T10:36:31.192Z,39.58
2023-05-05T10:37:35.020Z,39.68
2023-05-05T10:38:39.551Z,39.26
2023-05-05T10:39:42.785Z,38.63
2023-05-05T10:42:02.305Z,39.39
2023-05-05T10:43:06.963Z,39.57
2023-05-05T10:44:11.335Z,39.84
2023-05-05T10:45:14.646Z,40.16
2023-05-05T10:46:18.552Z,40.74
2023-05-05T10:47:22.059Z,40.74
2023-05-05T10:48:31.439Z,41.13
2023-05-05T10:49:56.128Z,41.45
2023-05-05T10:51:09.185Z,41.51
2023-05-05T10:52:19.244Z,41.77
2023-05-05T10:53:25.892Z,42.06
2023-05-05T10:54:44.741Z,42.16
2023-05-05T10:56:03.866Z,42.27
2023-05-05T10:57:07.600Z,41.94
2023-05-05T10:59:42.375Z,41.73
2023-05-05T11:00:51.413Z,41.58
2023-05-05T11:01:55.155Z,41.64
2023-05-05T11:03:18.951Z,40.94
2023-05-05T11:04:22.897Z,41.29
2023-05-05T11:05:26.408Z,41.34
2023-05-05T11:06:30.511Z,41.43
2023-05-05T11:07:33.931Z,41.60
2023-05-05T11:08:39.620Z,41.38
2023-05-05T11:09:58.013Z,41.58
2023-05-05T11:11:00.988Z,41.24
2023-05-05T11:12:06.830Z,40.54
2023-05-05T11:13:17.900Z,40.98
2023-05-05T11:14:23.289Z,40.70
2023-05-05T11:15:30.765Z,41.01
2023-05-05T11:16:47.513Z,40.76
2023-05-05T11:17:50.483Z,40.95
2023-05-05T11:18:53.175Z,40.92
2023-05-05T11:19:57.196Z,40.93
2023-05-05T11:21:05.023Z,40.93
2023-05-05T11:22:07.852Z,41.44
2023-05-05T11:23:16.728Z,41.67
2023-05-05T11:24:24.605Z,41.97
2023-05-05T11:26:53.154Z,41.81
2023-05-05T11:28:10.089Z,41.83
2023-05-05T11:29:12.714Z,42.25
2023-05-05T11:30:16.321Z,42.04
2023-05-05T11:31:19.255Z,42.01
2023-05-05T11:32:24.226Z,41.99
2023-05-05T11:33:37.869Z,41.80
2023-05-05T11:34:50.958Z,41.63
2023-05-05T11:36:03.364Z,41.77
2023-05-05T11:37:07.143Z,41.43
2023-05-05T11:38:10.890Z,42.10
2023-05-05T11:39:26.324Z,39.45
2023-05-05T11:40:30.329Z,40.88
2023-05-05T11:41:57.543Z,41.91
2023-05-05T11:43:06.716Z,39.09
2023-05-05T11:44:18.088Z,41.27
2023-05-05T11:46:35.925Z,40.17
2023-05-05T11:47:39.127Z,41.61
2023-05-05T11:48:47.012Z,41.79
2023-05-05T11:49:50.737Z,42.04
2023-05-05T11:50:54.247Z,41.93
2023-05-05T11:52:02.367Z,41.67
2023-05-05T11:53:06.355Z,41.96
2023-05-05T11:54:09.844Z,41.92
2023-05-05T11:55:12.825Z,41.58
2023-05-05T11:56:20.614Z,39.17
2023-05-05T11:57:29.693Z,40.17
2023-05-05T11:58:32.767Z,40.19
2023-05-05T11:59:36.754Z,39.49
2023-05-05T12:00:39.837Z,40.58
2023-05-05T12:01:43.183Z,40.81
2023-05-05T12:02:47.870Z,40.92
2023-05-05T12:03:52.497Z,40.15
2023-05-05T12:04:57.692Z,41.36
2023-05-05T12:06:03.034Z,41.45
2023-05-05T12:07:06.020Z,41.10
2023-05-05T12:09:22.337Z,41.67
2023-05-05T12:10:25.588Z,41.05
2023-05-05T12:11:29.042Z,40.68
2023-05-05T12:12:39.728Z,41.29
2023-05-05T12:13:43.882Z,41.72
2023-05-05T12:14:51.977Z,41.95
2023-05-05T12:15:55.712Z,42.05
2023-05-05T12:17:02.548Z,39.79
2023-05-05T12:18:05.911Z,40.44
2023-05-05T12:19:11.018Z,40.28
2023-05-05T12:20:14.455Z,41.67
2023-05-05T12:21:19.056Z,42.10
2023-05-05T12:22:26.423Z,40.76
2023-05-05T12:23:30.505Z,41.87
2023-05-05T12:24:33.930Z,42.09
2023-05-05T12:25:38.503Z,42.47
2023-05-05T12:26:41.349Z,40.10
2023-05-05T12:27:53.557Z,42.31
2023-05-05T12:29:01.267Z,42.27
2023-05-05T12:31:40.822Z,43.11
2023-05-05T12:32:44.602Z,43.39
2023-05-05T12:33:47.782Z,44.29
2023-05-05T12:34:53.745Z,43.61
2023-05-05T12:35:57.196Z,44.68
2023-05-05T12:37:01.529Z,43.27
2023-05-05T12:38:04.577Z,43.08
2023-05-05T12:39:07.734Z,44.73
2023-05-05T12:40:43.119Z,43.11
2023-05-05T12:41:46.052Z,43.90
2023-05-05T12:42:48.658Z,43.80
2023-05-05T12:43:56.936Z,45.11
2023-05-05T12:44:59.445Z,44.78
2023-05-05T12:46:11.675Z,45.61
2023-05-05T12:47:15.604Z,42.89
2023-05-05T12:48:21.912Z,45.39
2023-05-05T12:49:25.091Z,44.04
2023-05-05T12:50:31.832Z,44.11
2023-05-05T12:51:35.529Z,40.73
2023-05-05T12:52:42.477Z,43.13
2023-05-05T12:53:47.029Z,43.26
2023-05-05T12:54:57.939Z,44.09
2023-05-05T12:56:01.675Z,44.95
2023-05-05T12:58:20.250Z,45.15
2023-05-05T12:59:26.968Z,45.29
2023-05-05T13:00:30.931Z,44.14
2023-05-05T13:01:34.554Z,44.55
2023-05-05T13:02:38.363Z,44.50
2023-05-05T13:03:41.328Z,44.47
2023-05-05T13:04:54.679Z,43.86
2023-05-05T13:05:57.609Z,43.69
2023-05-05T13:07:13.138Z,43.98
2023-05-05T13:08:18.862Z,42.31
2023-05-05T13:10:58.226Z,42.80
2023-05-05T13:12:04.325Z,42.69
2023-05-05T13:13:09.276Z,42.82
2023-05-05T13:14:12.168Z,42.07
2023-05-05T13:15:14.889Z,42.44
2023-05-05T13:16:18.043Z,42.56
2023-05-05T13:17:21.812Z,42.90
2023-05-05T13:18:24.987Z,43.08
2023-05-05T13:19:30.966Z,42.29
2023-05-05T13:20:33.791Z,43.12
2023-05-05T13:21:38.084Z,43.70
2023-05-05T13:22:41.109Z,43.51
2023-05-05T13:23:44.656Z,43.24
2023-05-05T13:24:52.271Z,43.48
2023-05-05T13:25:52.318Z,43.71
2023-05-05T13:26:56.030Z,44.02
2023-05-05T13:27:59.832Z,44.03
2023-05-05T13:29:02.840Z,43.84
2023-05-05T13:30:08.135Z,44.11
2023-05-05T13:31:11.584Z,43.94
2023-05-05T13:32:15.318Z,43.20
2023-05-05T13:33:19.012Z,43.02
2023-05-05T13:34:21.876Z,42.90
2023-05-05T13:35:24.836Z,41.56
2023-05-05T13:37:41.227Z,40.78
2023-05-05T13:38:44.750Z,40.84
2023-05-05T13:39:47.894Z,40.91
2023-05-05T13:40:50.812Z,40.86
2023-05-05T13:41:54.049Z,40.86
2023-05-05T13:42:57.557Z,41.35
2023-05-05T13:45:14.545Z,41.71
2023-05-05T13:46:22.270Z,41.80
2023-05-05T13:47:23.426Z,41.87
2023-05-05T13:48:27.106Z,41.82
2023-05-05T13:49:30.613Z,41.74
2023-05-05T13:50:34.038Z,41.71
2023-05-05T13:51:38.865Z,41.49
2023-05-05T13:52:42.077Z,40.46
2023-05-05T13:53:46.394Z,40.32
2023-05-05T13:54:51.288Z,39.40
2023-05-05T13:55:55.107Z,39.53
2023-05-05T13:56:58.142Z,39.59
2023-05-05T13:58:01.140Z,39.59
2023-05-05T13:59:03.973Z,39.52
2023-05-05T14:00:09.881Z,39.56
2023-05-05T14:01:13.052Z,39.64
2023-05-05T14:02:17.585Z,39.48
2023-05-05T14:03:21.521Z,39.53
2023-05-05T14:04:24.881Z,39.35
2023-05-05T14:05:28.464Z,38.82
2023-05-05T14:06:32.249Z,38.29
2023-05-05T14:07:35.167Z,37.66
2023-05-05T14:09:51.005Z,36.84
2023-05-05T14:10:54.482Z,36.90
2023-05-05T14:11:58.870Z,36.79
2023-05-05T14:13:04.575Z,36.52
2023-05-05T14:14:08.380Z,35.96
2023-05-05T14:15:12.135Z,35.96
2023-05-05T14:16:15.610Z,35.19
2023-05-05T14:17:19.115Z,35.12
2023-05-05T14:18:22.224Z,35.06
2023-05-05T14:19:25.073Z,34.74
2023-05-05T14:20:29.246Z,34.50
2023-05-05T14:21:32.232Z,34.45
2023-05-05T14:22:35.068Z,34.41
2023-05-05T14:23:37.792Z,34.02
2023-05-05T14:24:40.617Z,33.82
2023-05-05T14:25:45.241Z,33.66
2023-05-05T14:26:48.662Z,33.57
2023-05-05T14:27:53.370Z,33.87
2023-05-05T14:28:57.058Z,34.00
2023-05-05T14:30:00.745Z,34.21
2023-05-05T14:31:03.750Z,34.25
2023-05-05T14:32:07.253Z,34.10
2023-05-05T14:33:10.213Z,34.10